Terminal Aerodrome Forecast
Issued by NWS

Current Version | Previous Version | Graphics & Text | Print | Product List | Glossary On
Versions: 1 2 3 4 5 6 7 8 9 10 11 12 13 14 15 16 17
000
FTUS41 KILN 281700
TAFLUK
TAF
KLUK 281730Z 2818/2918 05005KT P6SM SCT250
     FM290800 00000KT 5SM BR SCT100
     FM291000 00000KT 1SM BR SCT002 SCT100
     FM291200 13004KT P6SM SCT120=

USA.gov is the U.S. government's official web portal to all federal, state and local government web resources and services.